KLM792 SCEL-SAEZ
Flight info
| Callsign | KLM792 |
|---|---|
| Flight time | N/A |
| Altitude | 35000 |
| Route | ALBAL5D ALBAL UM424 ASADA ASADA7U |
| Aircraft | A320/M-SDE3FGHIRWY/LB1 |
Departure
| Time | N/A |
|---|---|
| Airport | Comodoro Arturo Merino Benítez International Airport (SCEL) |
Arrival
| Time | 2026-04-30 15:11 |
|---|---|
| Airport | Ezeiza International Airport - Ministro Pistarini (SAEZ) |
| Time | Latitude | Longitude | Altitude | Speed | Heading |
|---|---|---|---|---|---|
| 2026-04-30 14:13 | -34.51695 | -67.17505 | 34902 ft | 520 kts | 96° |
| 2026-04-30 14:13 | -34.52666 | -67.08805 | 34905 ft | 521 kts | 96° |
| 2026-04-30 14:14 | -34.53637 | -67.00088 | 34910 ft | 522 kts | 96° |
| 2026-04-30 14:14 | -34.54595 | -66.91352 | 34912 ft | 523 kts | 96° |
| 2026-04-30 14:15 | -34.55544 | -66.82603 | 34915 ft | 524 kts | 96° |
| 2026-04-30 14:15 | -34.56492 | -66.73837 | 34914 ft | 524 kts | 96° |
| 2026-04-30 14:16 | -34.57437 | -66.65129 | 34917 ft | 525 kts | 96° |
| 2026-04-30 14:16 | -34.58376 | -66.56350 | 34918 ft | 525 kts | 96° |
| 2026-04-30 14:17 | -34.59309 | -66.47562 | 34924 ft | 525 kts | 96° |
| 2026-04-30 14:17 | -34.60236 | -66.38774 | 34928 ft | 525 kts | 95° |
| 2026-04-30 14:18 | -34.61165 | -66.29989 | 34933 ft | 525 kts | 95° |
| 2026-04-30 14:18 | -34.62541 | -66.16800 | 34944 ft | 525 kts | 95° |
| 2026-04-30 14:19 | -34.63887 | -66.03612 | 34942 ft | 525 kts | 95° |
| 2026-04-30 14:20 | -34.64780 | -65.94814 | 34944 ft | 525 kts | 95° |
| 2026-04-30 14:20 | -34.66112 | -65.81605 | 34933 ft | 525 kts | 95° |
| 2026-04-30 14:21 | -34.66993 | -65.72790 | 34937 ft | 526 kts | 95° |
| 2026-04-30 14:22 | -34.68314 | -65.59540 | 34931 ft | 527 kts | 95° |
| 2026-04-30 14:22 | -34.69610 | -65.46272 | 34933 ft | 527 kts | 95° |
| 2026-04-30 14:23 | -34.71318 | -65.28542 | 34932 ft | 529 kts | 95° |
| 2026-04-30 14:24 | -34.72590 | -65.15273 | 34932 ft | 530 kts | 95° |
| 2026-04-30 14:25 | -34.74268 | -64.97457 | 34933 ft | 531 kts | 95° |
| 2026-04-30 14:26 | -34.75376 | -64.85577 | 34937 ft | 531 kts | 95° |
| 2026-04-30 14:27 | -34.76596 | -64.72175 | 34946 ft | 532 kts | 95° |
| 2026-04-30 14:27 | -34.77406 | -64.63230 | 34943 ft | 532 kts | 95° |
| 2026-04-30 14:28 | -34.78637 | -64.49811 | 34948 ft | 532 kts | 95° |
| 2026-04-30 14:28 | -34.79443 | -64.40868 | 34946 ft | 532 kts | 95° |
| 2026-04-30 14:29 | -34.81044 | -64.22945 | 34954 ft | 533 kts | 95° |
| 2026-04-30 14:31 | -34.83004 | -64.00519 | 34962 ft | 533 kts | 95° |
| 2026-04-30 14:31 | -34.84161 | -63.87042 | 34954 ft | 534 kts | 95° |
| 2026-04-30 14:32 | -34.85308 | -63.73617 | 34951 ft | 534 kts | 95° |
| 2026-04-30 14:33 | -34.86060 | -63.64627 | 34951 ft | 534 kts | 95° |
| 2026-04-30 14:33 | -34.87178 | -63.51125 | 34949 ft | 534 kts | 95° |
| 2026-04-30 14:34 | -34.87920 | -63.42123 | 34943 ft | 534 kts | 95° |
| 2026-04-30 14:34 | -34.88661 | -63.33114 | 34949 ft | 535 kts | 95° |
| 2026-04-30 14:35 | -34.89771 | -63.19581 | 34946 ft | 536 kts | 95° |
| 2026-04-30 14:36 | -34.90489 | -63.10547 | 34944 ft | 535 kts | 94° |
| 2026-04-30 14:36 | -34.91192 | -63.01516 | 34946 ft | 536 kts | 95° |
| 2026-04-30 14:37 | -34.91904 | -62.92471 | 34938 ft | 537 kts | 95° |
| 2026-04-30 14:37 | -34.92627 | -62.83416 | 34941 ft | 537 kts | 95° |
| 2026-04-30 14:38 | -34.93328 | -62.74351 | 34947 ft | 537 kts | 94° |
| 2026-04-30 14:38 | -34.94010 | -62.65283 | 34949 ft | 537 kts | 94° |
| 2026-04-30 14:39 | -34.94697 | -62.56220 | 34949 ft | 537 kts | 94° |
| 2026-04-30 14:39 | -34.95369 | -62.47149 | 34949 ft | 537 kts | 94° |
| 2026-04-30 14:40 | -34.96356 | -62.33528 | 34944 ft | 538 kts | 94° |
| 2026-04-30 14:40 | -34.96910 | -62.24443 | 34947 ft | 538 kts | 91° |
| 2026-04-30 14:41 | -34.97184 | -62.15328 | 34954 ft | 538 kts | 90° |
| 2026-04-30 14:41 | -34.97385 | -62.06208 | 34961 ft | 538 kts | 90° |
| 2026-04-30 14:42 | -34.97642 | -61.97082 | 34963 ft | 539 kts | 91° |
| 2026-04-30 14:42 | -34.97954 | -61.87949 | 34965 ft | 539 kts | 91° |
| 2026-04-30 14:43 | -34.98252 | -61.78812 | 34968 ft | 539 kts | 91° |
| 2026-04-30 14:43 | -34.98514 | -61.69668 | 34968 ft | 540 kts | 90° |
| 2026-04-30 14:44 | -34.98762 | -61.60515 | 34968 ft | 540 kts | 90° |
| 2026-04-30 14:44 | -34.99020 | -61.51353 | 34972 ft | 541 kts | 90° |
| 2026-04-30 14:45 | -34.99273 | -61.42176 | 34979 ft | 541 kts | 90° |
| 2026-04-30 14:45 | -34.99503 | -61.33002 | 34984 ft | 541 kts | 90° |
| 2026-04-30 14:46 | -34.99724 | -61.23837 | 34986 ft | 541 kts | 90° |
| 2026-04-30 14:46 | -34.99945 | -61.14663 | 34987 ft | 541 kts | 90° |
| 2026-04-30 14:47 | -35.00159 | -61.05548 | 34983 ft | 542 kts | 90° |
| 2026-04-30 14:47 | -35.00362 | -60.96359 | 34985 ft | 542 kts | 90° |
| 2026-04-30 14:48 | -35.00562 | -60.87166 | 34990 ft | 542 kts | 90° |
| 2026-04-30 14:48 | -35.00754 | -60.77970 | 34997 ft | 542 kts | 90° |
| 2026-04-30 14:49 | -35.00946 | -60.68773 | 35004 ft | 542 kts | 90° |
| 2026-04-30 14:49 | -35.01126 | -60.59577 | 34700 ft | 543 kts | 90° |
| 2026-04-30 14:50 | -35.01293 | -60.50362 | 34201 ft | 544 kts | 90° |
| 2026-04-30 14:50 | -35.01376 | -60.45751 | 33855 ft | 544 kts | 90° |
| 2026-04-30 14:51 | -35.01544 | -60.36387 | 31351 ft | 559 kts | 91° |
| 2026-04-30 14:51 | -35.01625 | -60.31644 | 30194 ft | 560 kts | 91° |
| 2026-04-30 14:51 | -35.01779 | -60.22256 | 27402 ft | 546 kts | 92° |
| 2026-04-30 14:52 | -35.01851 | -60.17654 | 26002 ft | 540 kts | 92° |
| 2026-04-30 14:52 | -35.01983 | -60.08584 | 24186 ft | 532 kts | 92° |
| 2026-04-30 14:52 | -35.02046 | -60.04083 | 23264 ft | 530 kts | 92° |
| 2026-04-30 14:53 | -35.02175 | -59.95151 | 21516 ft | 523 kts | 92° |
| 2026-04-30 14:53 | -35.02237 | -59.90731 | 20679 ft | 519 kts | 92° |
| 2026-04-30 14:54 | -35.02351 | -59.82007 | 19069 ft | 510 kts | 92° |
| 2026-04-30 14:54 | -35.02456 | -59.73446 | 17644 ft | 498 kts | 92° |
| 2026-04-30 14:55 | -35.02557 | -59.65108 | 16323 ft | 485 kts | 91° |
| 2026-04-30 14:55 | -35.02286 | -59.61064 | 15934 ft | 468 kts | 80° |
| 2026-04-30 14:55 | -35.00985 | -59.53817 | 15583 ft | 408 kts | 78° |
| 2026-04-30 14:56 | -34.99843 | -59.47454 | 15224 ft | 365 kts | 78° |
| 2026-04-30 14:56 | -34.98775 | -59.41549 | 14169 ft | 350 kts | 78° |
| 2026-04-30 14:57 | -34.98259 | -59.38682 | 13756 ft | 340 kts | 78° |
| 2026-04-30 14:57 | -34.97265 | -59.33203 | 12815 ft | 325 kts | 78° |
| 2026-04-30 14:58 | -34.96302 | -59.27941 | 11787 ft | 315 kts | 78° |
| 2026-04-30 14:58 | -34.95828 | -59.25356 | 11256 ft | 310 kts | 78° |
| 2026-04-30 14:58 | -34.94900 | -59.20275 | 10491 ft | 300 kts | 78° |
| 2026-04-30 14:59 | -34.94013 | -59.15453 | 10148 ft | 289 kts | 77° |
| 2026-04-30 15:00 | -34.92687 | -59.08287 | 9512 ft | 287 kts | 77° |
| 2026-04-30 15:00 | -34.91827 | -59.03614 | 8923 ft | 280 kts | 77° |
| 2026-04-30 15:01 | -34.90673 | -58.99283 | 8165 ft | 262 kts | 56° |
| 2026-04-30 15:01 | -34.89946 | -58.98094 | 7805 ft | 258 kts | 45° |
| 2026-04-30 15:01 | -34.86613 | -58.95520 | 6827 ft | 238 kts | 22° |
| 2026-04-30 15:02 | -34.85108 | -58.94698 | 6328 ft | 236 kts | 22° |
| 2026-04-30 15:02 | -34.83618 | -58.93886 | 5879 ft | 233 kts | 21° |
| 2026-04-30 15:03 | -34.79238 | -58.91504 | 5288 ft | 229 kts | 22° |
| 2026-04-30 15:03 | -34.76796 | -58.89269 | 5136 ft | 221 kts | 61° |
| 2026-04-30 15:04 | -34.76673 | -58.85589 | 4918 ft | 224 kts | 95° |
| 2026-04-30 15:04 | -34.77405 | -58.80239 | 4137 ft | 203 kts | 100° |
| 2026-04-30 15:05 | -34.78254 | -58.75566 | 3380 ft | 176 kts | 99° |
| 2026-04-30 15:06 | -34.78764 | -58.72755 | 2925 ft | 163 kts | 98° |
| 2026-04-30 15:06 | -34.79238 | -58.70139 | 2517 ft | 157 kts | 102° |
| 2026-04-30 15:07 | -34.79636 | -58.67943 | 2164 ft | 154 kts | 104° |
| 2026-04-30 15:07 | -34.80084 | -58.65454 | 1771 ft | 147 kts | 99° |
| 2026-04-30 15:08 | -34.80512 | -58.63086 | 1385 ft | 141 kts | 99° |
| 2026-04-30 15:08 | -34.81141 | -58.59637 | 814 ft | 138 kts | 98° |
| 2026-04-30 15:09 | -34.81538 | -58.57348 | 438 ft | 138 kts | 99° |
| 2026-04-30 15:09 | -34.81963 | -58.55073 | 95 ft | 136 kts | 100° |
| 2026-04-30 15:10 | -34.82259 | -58.53316 | 66 ft | 73 kts | 102° |
| 2026-04-30 15:11 | -34.82434 | -58.52351 | 67 ft | 28 kts | 102° |
| 2026-04-30 15:11 | -34.82475 | -58.52115 | 66 ft | 0 kts | 102° |